Time;durP1;ratioP1;P1;durP2;ratioP2;P2;SDS_P1;SDS_P2;PMS_P1;PMS_P2;Temp;Humidity;BMP_temperature;BMP_pressure;BME280_temperature;BME280_humidity;BME280_pressure;Samples;Min_cycle;Max_cycle;Signal;HPM_P1;HPM_P2
2022/10/05 00:01:33;;;;;;;12.35;8.02;;;12.00;99.90;;;;;;4962733;28;20043;-61
2022/10/05 00:04:17;;;;;;;13.27;8.60;;;12.00;99.90;;;;;;4956913;28;20486;-61
2022/10/05 00:06:46;;;;;;;10.63;7.80;;;12.10;99.90;;;;;;4960396;28;20454;-61
2022/10/05 00:09:18;;;;;;;13.35;8.15;;;12.10;99.90;;;;;;4962461;28;20410;-61
2022/10/05 00:11:44;;;;;;;14.13;8.38;;;12.10;99.90;;;;;;4964474;28;20042;-61
2022/10/05 00:14:27;;;;;;;11.50;7.78;;;12.10;99.90;;;;;;4957290;28;20054;-61
2022/10/05 00:16:54;;;;;;;11.95;8.32;;;12.00;99.90;;;;;;4957169;28;20125;-61
2022/10/05 00:19:27;;;;;;;13.32;8.85;;;12.10;99.90;;;;;;4952570;28;20413;-61
2022/10/05 00:22:19;;;;;;;13.05;9.20;;;12.00;99.90;;;;;;4959504;28;20034;-61
2022/10/05 00:24:47;;;;;;;12.20;8.63;;;11.90;99.90;;;;;;4951124;28;20039;-61
2022/10/05 00:27:30;;;;;;;12.57;8.57;;;12.00;99.90;;;;;;4953320;28;20553;-61
2022/10/05 00:29:59;;;;;;;13.90;9.15;;;11.90;99.90;;;;;;4956571;28;20123;-61
2022/10/05 00:32:25;;;;;;;11.80;9.32;;;12.00;99.90;;;;;;4956255;28;20558;-61
2022/10/05 00:34:51;;;;;;;13.77;8.90;;;12.00;99.90;;;;;;4958504;28;20525;-61
2022/10/05 00:37:17;;;;;;;12.10;9.13;;;11.90;99.90;;;;;;4954593;28;20035;-61
2022/10/05 00:39:42;;;;;;;10.52;9.10;;;11.90;99.90;;;;;;4958349;28;20367;-61
2022/10/05 00:42:37;;;;;;;11.90;8.73;;;11.90;99.90;;;;;;4952498;28;20034;-61
2022/10/05 00:45:14;;;;;;;14.07;9.07;;;11.80;99.90;;;;;;4953858;28;20046;-61
2022/10/05 00:48:10;;;;;;;11.82;8.70;;;11.80;99.90;;;;;;4955153;28;20517;-61
2022/10/05 00:50:56;;;;;;;11.52;8.52;;;11.80;99.90;;;;;;4963776;28;20459;-61
2022/10/05 00:53:52;;;;;;;13.35;9.07;;;11.70;99.90;;;;;;4950955;28;20113;-61
2022/10/05 00:56:31;;;;;;;10.20;8.85;;;11.70;99.90;;;;;;4955353;28;20035;-61
2022/10/05 00:59:17;;;;;;;10.43;8.60;;;11.60;99.90;;;;;;4956982;28;20039;-61
2022/10/05 01:02:12;;;;;;;11.55;8.70;;;11.70;99.90;;;;;;4953902;28;20540;-61
2022/10/05 01:05:10;;;;;;;15.98;9.05;;;11.70;99.90;;;;;;4956412;28;20036;-61
2022/10/05 01:08:06;;;;;;;11.55;8.23;;;11.60;99.90;;;;;;4925466;28;20050;-61
2022/10/05 01:11:00;;;;;;;11.18;8.63;;;11.60;99.90;;;;;;4947976;28;20085;-61
2022/10/05 01:13:38;;;;;;;12.52;8.50;;;11.50;99.90;;;;;;4951643;28;20664;-61
2022/10/05 01:16:14;;;;;;;12.02;8.52;;;11.60;99.90;;;;;;4949126;28;20053;-61
2022/10/05 01:18:57;;;;;;;10.85;8.65;;;11.60;99.90;;;;;;4955649;28;20533;-61
2022/10/05 01:21:25;;;;;;;12.95;8.98;;;11.60;99.90;;;;;;4952888;28;20031;-61
2022/10/05 01:24:28;;;;;;;12.50;9.05;;;11.60;99.90;;;;;;4953846;28;20031;-61
2022/10/05 01:27:24;;;;;;;13.55;8.88;;;11.60;99.90;;;;;;4952941;28;20038;-61
2022/10/05 01:30:09;;;;;;;13.48;8.95;;;11.60;99.90;;;;;;4951124;28;20024;-61
2022/10/05 01:32:45;;;;;;;14.02;8.57;;;11.60;99.90;;;;;;4948461;28;20047;-61
2022/10/05 01:35:34;;;;;;;13.48;8.82;;;11.50;99.90;;;;;;4956358;28;20034;-61
2022/10/05 01:38:12;;;;;;;12.55;8.30;;;11.50;99.90;;;;;;4957573;28;20098;-61
2022/10/05 01:41:11;;;;;;;14.10;9.27;;;11.50;99.90;;;;;;4952212;28;20037;-61
2022/10/05 01:43:51;;;;;;;14.43;9.40;;;11.50;99.90;;;;;;4957345;28;20630;-61
2022/10/05 01:46:34;;;;;;;13.23;8.88;;;11.60;99.90;;;;;;4954824;28;20065;-61
2022/10/05 01:49:22;;;;;;;11.70;9.10;;;11.50;99.90;;;;;;4954047;28;20496;-61
2022/10/05 01:52:22;;;;;;;12.32;9.00;;;11.60;99.90;;;;;;4952849;28;20122;-61
2022/10/05 01:55:18;;;;;;;12.32;8.57;;;11.60;99.90;;;;;;4959306;28;20046;-61
2022/10/05 01:58:25;;;;;;;14.15;8.93;;;11.50;99.90;;;;;;4957959;28;20039;-61
2022/10/05 02:01:05;;;;;;;14.82;9.63;;;11.50;99.90;;;;;;4929076;28;20027;-61
2022/10/05 02:03:38;;;;;;;13.93;9.20;;;11.40;99.90;;;;;;4957193;28;20042;-61
2022/10/05 02:06:28;;;;;;;14.35;9.00;;;11.50;99.90;;;;;;4956266;28;20035;-61
2022/10/05 02:09:01;;;;;;;19.02;9.45;;;11.50;99.90;;;;;;4958293;28;20627;-61
2022/10/05 02:11:27;;;;;;;14.27;9.30;;;11.60;99.90;;;;;;4960980;28;20455;-61
2022/10/05 02:13:58;;;;;;;16.58;9.80;;;11.70;99.90;;;;;;4956333;28;20038;-61
2022/10/05 02:16:36;;;;;;;15.05;9.77;;;11.70;99.90;;;;;;4956100;28;20051;-61
2022/10/05 02:19:15;;;;;;;13.43;9.63;;;11.70;99.90;;;;;;4958669;28;20027;-61
2022/10/05 02:21:45;;;;;;;17.83;9.70;;;11.70;99.90;;;;;;4957028;28;20077;-61
2022/10/05 02:24:17;;;;;;;15.18;9.95;;;11.70;99.90;;;;;;4955106;28;20058;-61
2022/10/05 02:26:45;;;;;;;14.00;9.75;;;11.80;99.90;;;;;;4959417;28;20042;-61
2022/10/05 02:29:13;;;;;;;14.38;9.95;;;11.80;99.90;;;;;;4955834;28;21045;-61
2022/10/05 02:31:46;;;;;;;12.77;10.50;;;11.90;99.90;;;;;;4959983;28;20049;-61
2022/10/05 02:34:30;;;;;;;15.52;10.43;;;11.90;99.90;;;;;;4955700;28;20247;-66
2022/10/05 02:37:11;;;;;;;12.57;10.55;;;11.90;99.90;;;;;;4960485;28;20126;-61
2022/10/05 02:40:00;;;;;;;15.82;10.77;;;11.90;99.90;;;;;;4959636;28;20059;-61
2022/10/05 02:43:10;;;;;;;18.48;10.15;;;11.90;99.90;;;;;;4959085;28;20038;-61
2022/10/05 02:45:54;;;;;;;17.67;10.40;;;11.90;99.90;;;;;;4869872;29;20482;-61
2022/10/05 02:48:44;;;;;;;16.20;10.40;;;11.90;99.90;;;;;;4870492;29;20037;-61
2022/10/05 02:51:22;;;;;;;15.40;10.00;;;12.00;99.90;;;;;;4929483;28;20045;-61
2022/10/05 02:54:19;;;;;;;15.13;10.82;;;12.10;99.90;;;;;;4955857;28;20375;-61
2022/10/05 02:56:48;;;;;;;14.60;9.95;;;12.10;99.90;;;;;;4959777;28;20483;-62
2022/10/05 02:59:20;;;;;;;16.58;10.10;;;12.10;99.90;;;;;;4955272;28;20032;-61
2022/10/05 03:01:50;;;;;;;14.80;10.02;;;12.30;99.90;;;;;;4962301;28;20034;-62
2022/10/05 03:04:42;;;;;;;16.75;10.43;;;12.30;99.90;;;;;;4955642;28;20098;-61
2022/10/05 03:07:15;;;;;;;14.57;10.18;;;12.30;99.90;;;;;;4952762;28;20050;-61
2022/10/05 03:09:48;;;;;;;15.35;10.48;;;12.30;99.90;;;;;;4953477;28;20558;-61
2022/10/05 03:12:41;;;;;;;15.32;10.50;;;12.30;99.90;;;;;;4954146;28;20086;-62
2022/10/05 03:15:29;;;;;;;15.32;10.07;;;12.30;99.90;;;;;;4954591;28;20043;-62
2022/10/05 03:18:16;;;;;;;13.32;10.23;;;12.40;99.90;;;;;;4951827;28;20043;-61
2022/10/05 03:20:59;;;;;;;18.52;11.00;;;12.50;99.90;;;;;;4952354;28;20050;-62
2022/10/05 03:23:49;;;;;;;19.88;10.32;;;12.50;99.90;;;;;;4960364;28;20054;-62
2022/10/05 03:26:47;;;;;;;14.18;10.43;;;12.40;99.90;;;;;;4954537;28;20116;-61
2022/10/05 03:29:24;;;;;;;18.05;10.55;;;12.40;99.90;;;;;;4950633;28;20035;-61
2022/10/05 03:32:03;;;;;;;14.52;11.07;;;12.50;99.90;;;;;;4954393;28;20043;-62
2022/10/05 03:35:09;;;;;;;16.67;11.70;;;12.50;99.90;;;;;;4958602;28;20070;-61
2022/10/05 03:37:37;;;;;;;14.23;10.65;;;12.60;99.90;;;;;;4878568;29;20708;-61
2022/10/05 03:40:18;;;;;;;13.35;10.77;;;12.50;99.90;;;;;;4942876;28;20487;-61
2022/10/05 03:42:59;;;;;;;16.35;10.80;;;12.60;99.90;;;;;;4950269;28;20054;-61
2022/10/05 03:45:49;;;;;;;15.55;11.13;;;12.60;99.90;;;;;;4950246;28;20054;-61
2022/10/05 03:48:29;;;;;;;16.98;10.48;;;12.60;99.90;;;;;;4955829;28;20621;-61
2022/10/05 03:51:21;;;;;;;14.95;10.70;;;12.60;99.90;;;;;;4951517;28;20483;-61
2022/10/05 03:53:54;;;;;;;15.00;10.85;;;12.70;99.90;;;;;;4950928;28;20466;-61
2022/10/05 03:56:32;;;;;;;16.85;10.70;;;12.60;99.90;;;;;;4958204;28;20046;-61
2022/10/05 03:59:39;;;;;;;17.98;10.38;;;12.60;99.90;;;;;;4957160;28;20050;-61
2022/10/05 04:02:11;;;;;;;16.25;10.52;;;12.70;99.90;;;;;;4918905;29;20071;-61
2022/10/05 04:04:43;;;;;;;14.70;10.20;;;12.70;99.90;;;;;;4921265;29;20047;-61
2022/10/05 04:07:19;;;;;;;14.35;10.85;;;12.70;99.90;;;;;;4932694;28;20039;-61
2022/10/05 04:09:47;;;;;;;18.25;10.48;;;12.70;99.90;;;;;;4953781;28;20031;-61
2022/10/05 04:12:26;;;;;;;15.05;10.15;;;12.60;99.90;;;;;;4960970;28;20062;-61
2022/10/05 04:15:18;;;;;;;13.40;10.15;;;12.60;99.90;;;;;;4949539;28;20038;-61
2022/10/05 04:18:29;;;;;;;14.38;10.30;;;12.60;99.90;;;;;;4957438;28;20046;-61
2022/10/05 04:21:00;;;;;;;12.52;10.02;;;12.70;99.90;;;;;;4920109;28;20035;-62
2022/10/05 04:23:37;;;;;;;13.85;9.95;;;12.70;99.90;;;;;;4951289;28;20714;-61
2022/10/05 04:26:23;;;;;;;14.77;10.38;;;12.70;99.90;;;;;;4957283;28;20439;-61
2022/10/05 04:28:57;;;;;;;14.32;9.75;;;12.70;99.90;;;;;;4956179;28;20042;-61
2022/10/05 04:31:59;;;;;;;12.98;9.38;;;12.70;99.90;;;;;;4958095;28;20067;-61
2022/10/05 04:35:06;;;;;;;17.23;9.75;;;12.70;99.90;;;;;;4950928;28;20035;-61
2022/10/05 04:37:47;;;;;;;16.23;10.23;;;12.70;99.90;;;;;;4958838;28;20043;-61
2022/10/05 04:40:24;;;;;;;17.00;10.32;;;12.70;99.90;;;;;;4957614;28;20038;-62
2022/10/05 04:43:02;;;;;;;15.30;10.00;;;12.70;99.90;;;;;;4949525;28;20804;-62
2022/10/05 04:46:01;;;;;;;14.05;9.35;;;12.60;99.90;;;;;;4958881;28;20074;-61
2022/10/05 04:48:38;;;;;;;12.02;9.07;;;12.60;99.90;;;;;;4957796;28;20035;-61
2022/10/05 04:51:18;;;;;;;15.02;9.93;;;12.60;99.90;;;;;;4954873;28;20038;-61
2022/10/05 04:54:10;;;;;;;13.40;10.02;;;12.60;99.90;;;;;;4954487;28;20077;-61
2022/10/05 04:56:44;;;;;;;13.43;9.57;;;12.70;99.90;;;;;;4949494;28;20039;-62
2022/10/05 04:59:37;;;;;;;14.25;9.13;;;12.70;99.90;;;;;;4953625;28;20772;-62
2022/10/05 05:02:18;;;;;;;12.35;9.88;;;12.70;99.90;;;;;;4950401;28;20031;-62
2022/10/05 05:04:52;;;;;;;12.68;10.20;;;12.70;99.90;;;;;;4953157;28;20193;-61
2022/10/05 05:07:37;;;;;;;12.20;9.60;;;12.90;99.90;;;;;;4950538;28;20023;-61
2022/10/05 05:10:32;;;;;;;15.07;10.90;;;12.80;99.90;;;;;;4954159;28;20042;-61
2022/10/05 05:13:35;;;;;;;17.40;10.45;;;12.80;99.90;;;;;;4948636;28;20297;-61
2022/10/05 05:16:15;;;;;;;14.18;10.10;;;12.80;99.90;;;;;;4949909;28;20031;-62
2022/10/05 05:19:04;;;;;;;13.48;9.98;;;12.90;99.90;;;;;;4953732;28;20142;-62
2022/10/05 05:21:54;;;;;;;17.77;10.60;;;12.90;99.90;;;;;;4957018;28;20039;-61
2022/10/05 05:24:44;;;;;;;16.80;11.07;;;13.00;99.90;;;;;;4957274;28;20039;-61
2022/10/05 05:27:35;;;;;;;18.40;11.02;;;13.10;99.90;;;;;;4956806;28;20038;-62
2022/10/05 05:30:15;;;;;;;14.57;9.88;;;13.00;99.90;;;;;;4957430;28;20676;-61
2022/10/05 05:33:08;;;;;;;13.38;9.95;;;12.90;99.90;;;;;;4951177;28;20108;-61
2022/10/05 05:35:36;;;;;;;13.65;9.95;;;12.90;99.90;;;;;;4954199;28;20384;-61
2022/10/05 05:38:26;;;;;;;14.25;10.00;;;12.90;99.90;;;;;;4955968;28;20656;-61
2022/10/05 05:41:07;;;;;;;14.43;10.43;;;12.80;99.90;;;;;;4953500;28;20051;-61
2022/10/05 05:43:32;;;;;;;15.57;10.75;;;12.90;99.90;;;;;;4958251;28;20491;-61
2022/10/05 05:46:01;;;;;;;16.75;10.43;;;12.90;99.90;;;;;;4953715;28;20042;-61
2022/10/05 05:48:39;;;;;;;16.67;10.38;;;12.90;99.90;;;;;;4954354;28;20387;-61
2022/10/05 05:51:36;;;;;;;18.70;11.27;;;12.90;99.90;;;;;;4950733;28;20032;-61
2022/10/05 05:54:37;;;;;;;15.10;10.60;;;13.00;99.90;;;;;;4926166;28;20496;-61
2022/10/05 05:57:18;;;;;;;20.60;10.68;;;13.00;99.90;;;;;;4952425;28;20529;-61
2022/10/05 06:00:22;;;;;;;18.77;9.80;;;13.00;99.90;;;;;;4958901;28;20129;-62
2022/10/05 06:03:07;;;;;;;13.40;10.07;;;13.00;99.90;;;;;;4878262;29;20044;-62
2022/10/05 06:05:51;;;;;;;14.43;9.55;;;13.00;99.90;;;;;;4954914;28;20589;-61
2022/10/05 06:08:25;;;;;;;13.40;9.63;;;13.00;99.90;;;;;;4951985;28;20046;-61
2022/10/05 06:11:18;;;;;;;12.52;9.75;;;13.00;99.90;;;;;;4953850;28;20615;-61
2022/10/05 06:13:45;;;;;;;12.98;7.07;;;13.10;99.90;;;;;;4953306;28;20443;-61
2022/10/05 06:16:35;;;;;;;14.40;9.52;;;13.20;99.90;;;;;;4956322;28;20339;-61
2022/10/05 06:19:11;;;;;;;13.70;9.82;;;13.10;99.90;;;;;;4957259;28;20050;-61
2022/10/05 06:21:50;;;;;;;11.25;9.38;;;13.20;99.90;;;;;;4954605;28;20176;-61
2022/10/05 06:24:30;;;;;;;14.68;9.70;;;13.20;99.90;;;;;;4949711;28;20031;-61
2022/10/05 06:27:32;;;;;;;13.88;9.55;;;13.20;99.90;;;;;;4957034;28;20061;-61
2022/10/05 06:30:02;;;;;;;14.15;9.35;;;13.20;99.90;;;;;;4961391;28;20114;-61
2022/10/05 06:32:46;;;;;;;13.93;9.85;;;13.30;99.90;;;;;;4954574;28;20597;-61
2022/10/05 06:35:47;;;;;;;;;;;13.30;99.90;;;;;;4954819;28;20553;-61
2022/10/05 06:38:32;;;;;;;14.55;8.82;;;13.30;99.90;;;;;;4880706;29;19919;-61
2022/10/05 06:41:10;;;;;;;12.02;8.93;;;13.30;99.90;;;;;;4925942;28;20499;-60
2022/10/05 06:43:42;;;;;;;15.10;8.68;;;13.30;99.90;;;;;;4956222;28;20380;-61
2022/10/05 06:46:18;;;;;;;13.60;8.70;;;13.30;99.90;;;;;;4949799;28;20043;-61
2022/10/05 06:49:28;;;;;;;14.90;8.70;;;13.30;99.90;;;;;;4953068;28;20077;-60
2022/10/05 06:52:30;;;;;;;13.48;9.00;;;13.30;99.90;;;;;;4939690;28;20043;-61
2022/10/05 06:55:21;;;;;;;12.93;8.35;;;13.40;99.90;;;;;;4956579;28;20042;-60
2022/10/05 06:58:12;;;;;;;13.45;9.18;;;13.30;99.90;;;;;;4955299;28;20436;-61
2022/10/05 07:00:56;;;;;;;12.07;8.25;;;13.40;99.90;;;;;;4958267;28;20069;-60
2022/10/05 07:03:42;;;;;;;14.15;8.23;;;13.40;99.90;;;;;;4957599;28;20138;-61
2022/10/05 07:06:08;;;;;;;12.40;7.90;;;13.60;99.90;;;;;;4957745;28;20411;-61
2022/10/05 07:09:06;;;;;;;13.55;7.80;;;13.50;99.90;;;;;;4959270;28;20050;-60
2022/10/05 07:12:02;;;;;;;12.07;8.02;;;13.50;99.90;;;;;;4960795;28;20121;-61
2022/10/05 07:14:52;;;;;;;15.95;8.38;;;13.50;99.90;;;;;;4950217;28;20046;-61
2022/10/05 07:17:30;;;;;;;10.25;7.60;;;13.60;99.90;;;;;;4955020;28;20134;-61
2022/10/05 07:20:13;;;;;;;11.93;7.95;;;13.50;99.90;;;;;;4951862;28;20031;-61
2022/10/05 07:22:44;;;;;;;9.38;7.82;;;13.60;99.90;;;;;;4961669;28;20535;-61
2022/10/05 07:25:26;;;;;;;10.70;7.50;;;13.60;99.90;;;;;;4958539;28;20031;-61
2022/10/05 07:27:58;;;;;;;10.40;7.50;;;13.60;99.90;;;;;;4961677;28;20429;-61
2022/10/05 07:30:24;;;;;;;11.95;7.03;;;13.70;99.90;;;;;;4960588;28;20875;-61
2022/10/05 07:33:08;;;;;;;10.32;7.90;;;13.80;99.90;;;;;;4957675;28;20086;-61
2022/10/05 07:38:40;;;;;;;11.65;6.60;;;13.80;99.90;;;;;;4956170;28;19945;-61
2022/10/05 07:41:30;;;;;;;90.53;76.47;;;13.80;99.90;;;;;;4957375;28;21398;-61
2022/10/05 07:44:12;;;;;;;21.70;16.25;;;13.80;99.90;;;;;;4958676;28;20039;-60
2022/10/05 07:46:59;;;;;;;10.23;7.00;;;13.90;99.90;;;;;;4956052;28;20141;-61
2022/10/05 07:49:43;;;;;;;10.55;6.82;;;14.00;99.90;;;;;;4959647;28;20043;-61
2022/10/05 07:52:22;;;;;;;11.73;7.07;;;14.00;99.90;;;;;;4956718;28;20046;-61
2022/10/05 07:55:03;;;;;;;11.57;7.03;;;14.10;99.90;;;;;;4959658;28;20100;-61
2022/10/05 07:58:02;;;;;;;9.07;6.38;;;14.00;99.90;;;;;;4955696;28;20034;-61
2022/10/05 08:01:01;;;;;;;10.38;7.00;;;13.90;99.90;;;;;;4958008;28;20379;-61
2022/10/05 08:03:37;;;;;;;10.15;6.40;;;14.00;99.90;;;;;;4951754;28;20041;-62
2022/10/05 08:06:05;;;;;;;10.13;5.85;;;14.00;99.90;;;;;;4957677;28;20179;-61
2022/10/05 08:08:37;;;;;;;11.52;7.43;;;14.00;99.90;;;;;;4953184;28;20149;-61
2022/10/05 08:11:42;;;;;;;10.77;6.65;;;14.10;99.90;;;;;;4952655;28;20038;-61
2022/10/05 08:14:19;;;;;;;10.85;6.38;;;14.20;99.90;;;;;;4957472;28;20513;-61
2022/10/05 08:16:50;;;;;;;12.88;6.97;;;14.20;99.90;;;;;;4952019;28;20043;-60
2022/10/05 08:19:21;;;;;;;10.32;6.93;;;14.30;99.90;;;;;;4953517;28;20030;-61
2022/10/05 08:22:21;;;;;;;11.70;6.35;;;14.40;99.90;;;;;;4952594;28;20156;-61
2022/10/05 08:24:59;;;;;;;13.27;6.55;;;14.50;99.90;;;;;;4941536;28;20038;-61
2022/10/05 08:27:42;;;;;;;12.50;6.53;;;14.50;99.90;;;;;;4957146;28;20067;-60
2022/10/05 08:30:10;;;;;;;9.10;6.18;;;14.50;99.90;;;;;;4953264;28;20067;-61
2022/10/05 08:33:01;;;;;;;9.90;6.30;;;14.50;99.90;;;;;;4959240;28;20345;-61
2022/10/05 08:35:34;;;;;;;9.05;6.20;;;14.50;99.90;;;;;;4956868;28;20107;-61
2022/10/05 08:38:11;;;;;;;10.05;6.15;;;14.60;99.90;;;;;;4954099;28;20110;-61
2022/10/05 08:40:56;;;;;;;11.50;6.28;;;14.60;99.90;;;;;;4954778;28;20035;-61
2022/10/05 08:43:49;;;;;;;11.18;6.60;;;14.70;99.90;;;;;;4953286;28;20486;-61
2022/10/05 08:46:40;;;;;;;9.90;6.35;;;14.90;99.90;;;;;;4959600;28;20034;-61
2022/10/05 08:49:31;;;;;;;8.57;6.15;;;14.90;99.90;;;;;;4950300;28;20039;-61
2022/10/05 08:52:29;;;;;;;9.88;5.68;;;14.90;99.90;;;;;;4956376;28;20597;-61
2022/10/05 08:55:09;;;;;;;9.73;5.80;;;14.90;99.90;;;;;;4955785;28;20043;-61
2022/10/05 08:57:50;;;;;;;7.28;5.82;;;15.00;99.90;;;;;;4957152;28;20049;-61
2022/10/05 09:00:15;;;;;;;7.70;5.70;;;15.00;99.90;;;;;;4955787;28;20400;-61
2022/10/05 09:03:19;;;;;;;8.80;5.85;;;15.10;99.90;;;;;;4953306;28;20098;-61
2022/10/05 09:06:02;;;;;;;10.20;5.33;;;15.20;99.90;;;;;;4958672;28;20439;-61
2022/10/05 09:08:47;;;;;;;;;;;15.30;99.90;;;;;;4953333;28;20266;-60
2022/10/05 09:11:33;;;;;;;;;;;15.40;99.90;;;;;;4956963;28;20546;-60
2022/10/05 09:14:17;;;;;;;8.20;5.47;;;15.40;99.90;;;;;;4956808;28;19973;-61
2022/10/05 09:17:17;;;;;;;6.93;4.70;;;15.40;99.90;;;;;;4953212;28;20427;-61
2022/10/05 09:20:02;;;;;;;9.60;5.13;;;15.50;99.90;;;;;;4958861;28;20558;-61
2022/10/05 09:22:37;;;;;;;8.30;4.95;;;15.50;99.90;;;;;;4954050;28;20062;-61
2022/10/05 09:25:22;;;;;;;8.57;5.15;;;15.70;99.90;;;;;;4950348;28;20054;-61
2022/10/05 09:27:55;;;;;;;8.98;5.47;;;15.80;99.90;;;;;;4957679;28;20169;-60
2022/10/05 09:30:36;;;;;;;9.60;4.80;;;15.80;99.90;;;;;;4954761;28;20035;-61
2022/10/05 09:33:14;;;;;;;8.20;4.55;;;15.80;99.90;;;;;;4957743;28;20034;-61
2022/10/05 09:36:00;;;;;;;8.30;4.60;;;15.90;99.90;;;;;;4959967;28;20480;-61
2022/10/05 09:39:03;;;;;;;9.38;4.35;;;16.00;99.90;;;;;;4960142;28;20052;-61
2022/10/05 09:42:06;;;;;;;8.05;4.55;;;16.20;99.90;;;;;;4958330;28;20023;-61
2022/10/05 09:45:00;;;;;;;6.28;3.80;;;16.30;99.90;;;;;;4955056;28;20450;-60
2022/10/05 09:47:51;;;;;;;8.98;4.53;;;16.30;99.90;;;;;;4953430;28;20227;-61
2022/10/05 09:50:54;;;;;;;5.70;3.67;;;16.40;99.90;;;;;;4957758;28;20177;-61
2022/10/05 09:53:33;;;;;;;7.60;3.77;;;16.50;99.90;;;;;;4954712;28;20035;-61
2022/10/05 09:56:13;;;;;;;6.95;3.50;;;16.50;99.90;;;;;;4958229;28;20118;-61
2022/10/05 09:58:49;;;;;;;7.32;3.58;;;16.50;99.90;;;;;;4959820;28;20047;-61
2022/10/05 10:01:50;;;;;;;6.32;3.15;;;16.60;99.90;;;;;;4951152;28;20062;-61
2022/10/05 10:04:42;;;;;;;4.82;3.40;;;16.70;99.90;;;;;;4944931;28;20635;-61
2022/10/05 10:07:47;;;;;;;6.20;3.15;;;16.80;99.90;;;;;;4956099;28;20153;-63
2022/10/05 10:10:34;;;;;;;7.53;3.10;;;16.80;99.90;;;;;;4939736;28;20126;-61
2022/10/05 10:13:44;;;;;;;4.57;2.90;;;16.90;99.90;;;;;;4954371;28;20070;-61
2022/10/05 10:16:48;;;;;;;6.93;2.80;;;17.00;99.90;;;;;;4957329;28;20035;-61
2022/10/05 10:19:52;;;;;;;3.38;2.40;;;17.10;99.90;;;;;;4953663;28;20062;-61
2022/10/05 10:22:45;;;;;;;6.03;2.10;;;17.10;99.90;;;;;;4958842;28;20450;-61
2022/10/05 10:25:37;;;;;;;4.28;1.98;;;17.20;99.90;;;;;;4958009;28;20042;-61
2022/10/05 10:28:27;;;;;;;3.60;2.10;;;17.20;99.90;;;;;;4956920;28;20069;-61
2022/10/05 10:31:06;;;;;;;30.95;23.60;;;;;;;;;;4956892;28;20039;-61
2022/10/05 10:33:55;;;;;;;6.10;2.35;;;17.30;99.90;;;;;;4960506;28;20613;-61
2022/10/05 10:36:49;;;;;;;7.70;2.08;;;17.40;99.90;;;;;;4959568;28;20039;-61
2022/10/05 10:39:44;;;;;;;3.85;2.08;;;17.30;99.90;;;;;;4957966;28;20031;-61
2022/10/05 10:42:24;;;;;;;4.55;2.25;;;17.30;99.90;;;;;;4961544;28;20452;-61
2022/10/05 10:45:18;;;;;;;4.43;2.17;;;17.30;99.90;;;;;;4960549;28;20045;-62
2022/10/05 10:48:03;;;;;;;;;;;17.40;99.90;;;;;;4963067;28;20051;-62
2022/10/05 10:50:57;;;;;;;3.65;1.70;;;17.40;99.90;;;;;;4959420;28;19976;-61
2022/10/05 10:54:01;;;;;;;4.18;2.03;;;17.50;99.90;;;;;;4955881;28;20126;-61
2022/10/05 10:56:29;;;;;;;;;;;17.60;99.90;;;;;;4961113;28;20050;-61
2022/10/05 10:59:03;;;;;;;6.10;1.92;;;17.60;99.90;;;;;;4961069;28;19996;-61
2022/10/05 11:01:39;;;;;;;5.22;1.92;;;17.70;99.90;;;;;;4959725;28;20546;-61
2022/10/05 11:04:35;;;;;;;4.55;1.85;;;17.80;99.90;;;;;;4959205;28;20749;-61
2022/10/05 11:07:43;;;;;;;4.55;1.60;;;17.80;99.90;;;;;;4955511;28;20487;-61
2022/10/05 11:10:27;;;;;;;2.70;1.70;;;17.90;99.90;;;;;;4958293;28;20034;-61
2022/10/05 11:13:06;;;;;;;4.20;2.05;;;18.00;99.90;;;;;;4959381;28;20971;-61
2022/10/05 11:15:54;;;;;;;5.90;2.22;;;17.90;99.90;;;;;;4960490;28;20039;-61
2022/10/05 11:18:53;;;;;;;2.20;1.50;;;18.00;99.90;;;;;;4955358;28;20145;-61
2022/10/05 11:21:45;;;;;;;3.85;1.80;;;18.10;99.90;;;;;;4955322;28;20038;-61
2022/10/05 11:24:37;;;;;;;4.32;1.63;;;18.10;99.90;;;;;;4959085;28;20039;-61
2022/10/05 11:27:21;;;;;;;7.32;1.67;;;18.10;99.90;;;;;;4958554;28;20448;-61
2022/10/05 11:30:05;;;;;;;6.88;1.90;;;18.20;99.90;;;;;;4958132;28;20113;-62
2022/10/05 11:32:51;;;;;;;6.82;3.88;;;18.30;99.90;;;;;;4956336;28;20049;-60
2022/10/05 11:35:45;;;;;;;21.75;14.82;;;18.40;99.90;;;;;;4956399;28;20557;-61
2022/10/05 11:38:29;;;;;;;3.33;1.83;;;18.40;99.90;;;;;;4955982;28;20517;-61
2022/10/05 11:41:26;;;;;;;4.47;2.00;;;18.30;99.90;;;;;;4957534;28;20035;-61
2022/10/05 11:44:34;;;;;;;7.00;2.10;;;18.30;99.90;;;;;;4957606;28;20060;-62
2022/10/05 11:47:28;;;;;;;2.97;1.73;;;18.40;99.90;;;;;;4931877;28;20826;-60
2022/10/05 11:50:20;;;;;;;3.75;2.15;;;18.40;99.90;;;;;;4957419;28;20627;-61
2022/10/05 11:53:09;;;;;;;1.83;1.52;;;18.30;99.90;;;;;;4956035;28;20534;-61
2022/10/05 11:55:43;;;;;;;5.88;1.92;;;18.50;99.90;;;;;;4960654;28;20382;-61
2022/10/05 11:58:14;;;;;;;2.67;1.73;;;18.40;99.90;;;;;;4956725;28;20491;-62
2022/10/05 12:00:48;;;;;;;5.95;1.70;;;18.30;99.90;;;;;;4962255;28;20070;-62
2022/10/05 12:03:32;;;;;;;1.88;1.67;;;18.40;99.90;;;;;;4954771;28;20710;-61
2022/10/05 12:06:38;;;;;;;5.53;1.80;;;18.50;99.90;;;;;;4959324;28;20043;-62
2022/10/05 12:09:25;;;;;;;4.22;1.77;;;18.60;99.90;;;;;;4889878;28;20121;-62
2022/10/05 12:12:15;;;;;;;5.63;1.85;;;18.60;99.90;;;;;;4958065;28;20047;-62
2022/10/05 12:15:10;;;;;;;4.32;1.60;;;18.60;99.90;;;;;;4950853;28;20038;-62
2022/10/05 12:17:47;;;;;;;3.78;1.70;;;18.60;99.90;;;;;;4957358;28;20356;-62
2022/10/05 12:20:51;;;;;;;12.75;7.00;;;18.70;99.90;;;;;;4957264;28;20046;-61
2022/10/05 12:23:20;;;;;;;;;;;18.70;99.90;;;;;;4959933;28;20038;-62
2022/10/05 12:26:04;;;;;;;4.43;1.50;;;19.00;99.90;;;;;;4958775;28;20009;-62
2022/10/05 12:28:36;;;;;;;7.72;1.73;;;19.10;99.90;;;;;;4958339;28;20050;-62
2022/10/05 12:31:06;;;;;;;6.85;1.95;;;19.10;99.90;;;;;;4958164;28;20047;-62
2022/10/05 12:33:45;;;;;;;4.70;1.70;;;19.10;99.90;;;;;;4954650;28;20030;-62
2022/10/05 12:36:19;;;;;;;3.63;1.38;;;19.10;99.90;;;;;;4959479;28;20085;-62
2022/10/05 12:38:54;;;;;;;1.67;1.50;;;19.10;99.90;;;;;;4950941;28;20105;-62
2022/10/05 12:41:35;;;;;;;3.67;1.58;;;19.10;99.90;;;;;;4954182;28;20046;-62
2022/10/05 12:44:15;;;;;;;4.70;1.58;;;19.20;99.90;;;;;;4949996;28;20059;-62
2022/10/05 12:47:06;;;;;;;2.60;1.50;;;19.20;99.90;;;;;;4955559;28;20169;-62
2022/10/05 12:50:10;;;;;;;2.67;1.50;;;19.30;99.90;;;;;;4955621;28;20038;-62
2022/10/05 12:52:42;;;;;;;3.95;1.40;;;19.30;99.90;;;;;;4968605;28;20473;-62
2022/10/05 12:55:16;;;;;;;5.68;1.40;;;19.30;99.90;;;;;;4954110;28;20042;-62
2022/10/05 12:57:52;;;;;;;3.05;1.50;;;19.30;99.90;;;;;;4954889;28;20042;-62
2022/10/05 13:00:19;;;;;;;7.20;1.70;;;19.50;99.90;;;;;;4953810;28;20043;-62
2022/10/05 13:02:52;;;;;;;7.35;1.58;;;19.50;99.90;;;;;;4959799;28;20030;-62
2022/10/05 13:05:36;;;;;;;2.53;1.48;;;19.60;99.90;;;;;;4954700;28;20047;-62
2022/10/05 13:08:31;;;;;;;5.40;1.80;;;19.50;99.90;;;;;;4952269;28;20047;-63
2022/10/05 13:11:36;;;;;;;4.93;1.60;;;19.60;99.90;;;;;;4955603;28;20617;-62
2022/10/05 13:14:44;;;;;;;3.80;1.20;;;19.50;99.90;;;;;;4953006;28;20026;-62
2022/10/05 13:17:34;;;;;;;4.93;1.42;;;19.60;99.90;;;;;;4936713;28;20089;-62
2022/10/05 13:20:19;;;;;;;3.13;1.42;;;19.70;99.90;;;;;;4955584;28;20065;-62
2022/10/05 13:23:08;;;;;;;5.15;1.33;;;19.70;99.90;;;;;;4957988;28;20117;-62
2022/10/05 13:25:39;;;;;;;3.05;1.30;;;19.70;99.90;;;;;;4948737;28;20035;-62
2022/10/05 13:28:18;;;;;;;3.30;1.27;;;19.60;99.90;;;;;;4960544;28;20215;-62
2022/10/05 13:30:53;;;;;;;3.75;1.48;;;20.00;99.90;;;;;;4961356;28;20351;-62
2022/10/05 13:33:51;;;;;;;3.70;1.30;;;19.90;99.90;;;;;;4956245;28;20070;-62
2022/10/05 13:36:51;;;;;;;4.03;1.40;;;20.00;99.90;;;;;;4962256;28;20023;-62
2022/10/05 13:39:32;;;;;;;3.35;1.20;;;19.80;99.90;;;;;;4956055;28;20070;-62
2022/10/05 13:42:08;;;;;;;5.63;1.90;;;19.90;99.90;;;;;;4961873;28;20039;-62
2022/10/05 13:44:50;;;;;;;6.85;1.30;;;19.80;99.90;;;;;;4967187;28;20039;-62
2022/10/05 13:47:22;;;;;;;3.83;1.27;;;19.90;99.90;;;;;;4950680;28;20039;-62
2022/10/05 13:49:50;;;;;;;3.67;1.20;;;20.00;99.90;;;;;;4955059;28;20035;-63
2022/10/05 13:52:23;;;;;;;2.33;1.38;;;20.00;99.90;;;;;;4953178;28;20043;-62
2022/10/05 13:55:25;;;;;;;1.95;1.23;;;19.80;99.90;;;;;;4954618;28;20460;-63
2022/10/05 13:58:04;;;;;;;4.00;1.20;;;19.70;99.90;;;;;;4930267;28;20046;-63
2022/10/05 14:00:32;;;;;;;1.83;1.20;;;19.80;99.90;;;;;;4957650;28;20042;-62
2022/10/05 14:03:02;;;;;;;3.05;1.35;;;19.90;99.90;;;;;;4953862;28;20510;-63
2022/10/05 14:05:30;;;;;;;4.00;1.38;;;19.80;99.90;;;;;;4956541;28;20104;-63
2022/10/05 14:08:01;;;;;;;3.88;1.23;;;19.70;99.90;;;;;;4963095;28;20046;-62
2022/10/05 14:10:39;;;;;;;2.65;1.20;;;19.60;99.90;;;;;;4956291;28;20128;-63